sensor_id;sensor_type;location;lat;lon;timestamp;temperature;humidity
75489;HTU21D;64069;46.396;48.102;2023-07-09T00:00:25;27.52;62.50
75489;HTU21D;64069;46.396;48.102;2023-07-09T00:02:51;27.49;62.91
75489;HTU21D;64069;46.396;48.102;2023-07-09T00:05:23;27.40;63.51
75489;HTU21D;64069;46.396;48.102;2023-07-09T00:07:56;27.35;63.85
75489;HTU21D;64069;46.396;48.102;2023-07-09T00:10:28;27.24;64.11
75489;HTU21D;64069;46.396;48.102;2023-07-09T00:12:54;27.15;64.42
75489;HTU21D;64069;46.396;48.102;2023-07-09T00:15:27;27.02;64.85
75489;HTU21D;64069;46.396;48.102;2023-07-09T00:18:00;26.93;65.21
75489;HTU21D;64069;46.396;48.102;2023-07-09T00:20:26;26.81;65.78
75489;HTU21D;64069;46.396;48.102;2023-07-09T00:22:58;26.69;66.14
75489;HTU21D;64069;46.396;48.102;2023-07-09T00:25:30;26.63;66.37
75489;HTU21D;64069;46.396;48.102;2023-07-09T00:27:56;26.56;66.62
75489;HTU21D;64069;46.396;48.102;2023-07-09T00:30:29;26.52;66.67
75489;HTU21D;64069;46.396;48.102;2023-07-09T00:33:02;26.46;66.81
75489;HTU21D;64069;46.396;48.102;2023-07-09T00:35:30;26.42;67.14
75489;HTU21D;64069;46.396;48.102;2023-07-09T00:38:03;26.39;67.23
75489;HTU21D;64069;46.396;48.102;2023-07-09T00:40:35;26.40;67.07
75489;HTU21D;64069;46.396;48.102;2023-07-09T00:43:01;26.43;66.97
75489;HTU21D;64069;46.396;48.102;2023-07-09T00:45:34;26.48;66.82
75489;HTU21D;64069;46.396;48.102;2023-07-09T00:48:09;26.52;66.75
75489;HTU21D;64069;46.396;48.102;2023-07-09T00:50:49;26.55;66.50
75489;HTU21D;64069;46.396;48.102;2023-07-09T00:53:29;26.58;66.71
75489;HTU21D;64069;46.396;48.102;2023-07-09T00:56:07;26.58;66.59
75489;HTU21D;64069;46.396;48.102;2023-07-09T00:58:48;26.63;66.56
75489;HTU21D;64069;46.396;48.102;2023-07-09T01:01:21;26.71;66.17
75489;HTU21D;64069;46.396;48.102;2023-07-09T01:03:53;26.75;66.01
75489;HTU21D;64069;46.396;48.102;2023-07-09T01:06:38;26.77;66.16
75489;HTU21D;64069;46.396;48.102;2023-07-09T01:09:12;26.77;66.33
75489;HTU21D;64069;46.396;48.102;2023-07-09T01:11:45;26.77;66.44
75489;HTU21D;64069;46.396;48.102;2023-07-09T01:14:36;26.78;66.62
75489;HTU21D;64069;46.396;48.102;2023-07-09T01:17:10;26.81;66.72
75489;HTU21D;64069;46.396;48.102;2023-07-09T01:19:39;26.82;66.83
75489;HTU21D;64069;46.396;48.102;2023-07-09T01:22:18;26.84;67.24
75489;HTU21D;64069;46.396;48.102;2023-07-09T01:27:26;26.85;67.63
75489;HTU21D;64069;46.396;48.102;2023-07-09T01:30:01;26.87;67.47
75489;HTU21D;64069;46.396;48.102;2023-07-09T01:32:27;26.90;67.44
75489;HTU21D;64069;46.396;48.102;2023-07-09T01:35:03;26.94;67.04
75489;HTU21D;64069;46.396;48.102;2023-07-09T01:37:38;26.97;66.78
75489;HTU21D;64069;46.396;48.102;2023-07-09T01:40:07;27.01;66.63
75489;HTU21D;64069;46.396;48.102;2023-07-09T01:42:41;27.04;66.62
75489;HTU21D;64069;46.396;48.102;2023-07-09T01:45:14;27.07;66.89
75489;HTU21D;64069;46.396;48.102;2023-07-09T01:47:41;27.05;67.33
75489;HTU21D;64069;46.396;48.102;2023-07-09T01:50:14;27.05;67.45
75489;HTU21D;64069;46.396;48.102;2023-07-09T01:52:49;27.04;67.49
75489;HTU21D;64069;46.396;48.102;2023-07-09T01:55:22;27.07;67.07
75489;HTU21D;64069;46.396;48.102;2023-07-09T01:57:48;27.13;66.86
75489;HTU21D;64069;46.396;48.102;2023-07-09T02:00:23;27.23;66.47
75489;HTU21D;64069;46.396;48.102;2023-07-09T02:02:55;27.31;65.94
75489;HTU21D;64069;46.396;48.102;2023-07-09T02:05:23;27.40;66.37
75489;HTU21D;64069;46.396;48.102;2023-07-09T02:07:56;27.42;67.16
75489;HTU21D;64069;46.396;48.102;2023-07-09T02:10:30;27.50;67.08
75489;HTU21D;64069;46.396;48.102;2023-07-09T02:12:56;27.58;66.75
75489;HTU21D;64069;46.396;48.102;2023-07-09T02:15:28;27.64;66.72
75489;HTU21D;64069;46.396;48.102;2023-07-09T02:18:02;27.69;65.99
75489;HTU21D;64069;46.396;48.102;2023-07-09T02:20:28;27.78;65.28
75489;HTU21D;64069;46.396;48.102;2023-07-09T02:23:02;27.87;64.71
75489;HTU21D;64069;46.396;48.102;2023-07-09T02:25:34;27.96;64.09
75489;HTU21D;64069;46.396;48.102;2023-07-09T02:28:00;28.03;63.73
75489;HTU21D;64069;46.396;48.102;2023-07-09T02:30:32;28.06;63.60
75489;HTU21D;64069;46.396;48.102;2023-07-09T02:33:04;28.05;63.70
75489;HTU21D;64069;46.396;48.102;2023-07-09T02:35:30;27.99;64.21
75489;HTU21D;64069;46.396;48.102;2023-07-09T02:38:03;27.97;64.50
75489;HTU21D;64069;46.396;48.102;2023-07-09T02:40:36;27.98;64.35
75489;HTU21D;64069;46.396;48.102;2023-07-09T02:43:02;27.95;64.39
75489;HTU21D;64069;46.396;48.102;2023-07-09T02:45:35;27.91;64.32
75489;HTU21D;64069;46.396;48.102;2023-07-09T02:48:07;27.89;64.21
75489;HTU21D;64069;46.396;48.102;2023-07-09T02:50:38;27.91;64.00
75489;HTU21D;64069;46.396;48.102;2023-07-09T02:53:11;27.88;63.96
75489;HTU21D;64069;46.396;48.102;2023-07-09T02:55:43;27.86;63.91
75489;HTU21D;64069;46.396;48.102;2023-07-09T02:58:09;27.84;63.90
75489;HTU21D;64069;46.396;48.102;2023-07-09T03:00:41;27.86;63.73
75489;HTU21D;64069;46.396;48.102;2023-07-09T03:03:13;27.90;63.70
75489;HTU21D;64069;46.396;48.102;2023-07-09T03:05:39;27.95;63.58
75489;HTU21D;64069;46.396;48.102;2023-07-09T03:08:11;28.00;63.43
75489;HTU21D;64069;46.396;48.102;2023-07-09T03:10:43;28.10;63.10
75489;HTU21D;64069;46.396;48.102;2023-07-09T03:13:15;28.20;62.76
75489;HTU21D;64069;46.396;48.102;2023-07-09T03:15:55;28.30;62.55
75489;HTU21D;64069;46.396;48.102;2023-07-09T03:18:22;28.38;62.28
75489;HTU21D;64069;46.396;48.102;2023-07-09T03:20:54;28.50;61.90
75489;HTU21D;64069;46.396;48.102;2023-07-09T03:23:20;28.61;61.28
75489;HTU21D;64069;46.396;48.102;2023-07-09T03:25:55;28.73;60.74
75489;HTU21D;64069;46.396;48.102;2023-07-09T03:28:28;28.83;60.35
75489;HTU21D;64069;46.396;48.102;2023-07-09T03:31:01;28.91;60.03
75489;HTU21D;64069;46.396;48.102;2023-07-09T03:33:27;29.04;59.74
75489;HTU21D;64069;46.396;48.102;2023-07-09T03:35:59;29.20;59.43
75489;HTU21D;64069;46.396;48.102;2023-07-09T03:38:32;29.35;58.96
75489;HTU21D;64069;46.396;48.102;2023-07-09T03:40:58;29.47;58.82
75489;HTU21D;64069;46.396;48.102;2023-07-09T03:43:30;29.66;58.76
75489;HTU21D;64069;46.396;48.102;2023-07-09T03:46:02;29.90;58.45
75489;HTU21D;64069;46.396;48.102;2023-07-09T03:48:34;30.16;57.90
75489;HTU21D;64069;46.396;48.102;2023-07-09T03:51:00;30.54;56.99
75489;HTU21D;64069;46.396;48.102;2023-07-09T03:53:33;30.90;55.96
75489;HTU21D;64069;46.396;48.102;2023-07-09T03:56:05;31.04;55.48
75489;HTU21D;64069;46.396;48.102;2023-07-09T03:58:31;31.25;54.97
75489;HTU21D;64069;46.396;48.102;2023-07-09T04:01:03;31.37;54.78
75489;HTU21D;64069;46.396;48.102;2023-07-09T04:03:35;31.41;54.71
75489;HTU21D;64069;46.396;48.102;2023-07-09T04:06:01;31.44;54.67
75489;HTU21D;64069;46.396;48.102;2023-07-09T04:08:33;31.42;54.71
75489;HTU21D;64069;46.396;48.102;2023-07-09T04:11:05;31.38;54.94
75489;HTU21D;64069;46.396;48.102;2023-07-09T04:13:31;31.33;55.07
75489;HTU21D;64069;46.396;48.102;2023-07-09T04:16:04;31.29;55.13
75489;HTU21D;64069;46.396;48.102;2023-07-09T04:18:37;31.29;55.22
75489;HTU21D;64069;46.396;48.102;2023-07-09T04:21:03;31.24;55.45
75489;HTU21D;64069;46.396;48.102;2023-07-09T04:23:35;31.22;55.61
75489;HTU21D;64069;46.396;48.102;2023-07-09T04:26:14;31.28;55.74
75489;HTU21D;64069;46.396;48.102;2023-07-09T04:28:46;31.34;55.71
75489;HTU21D;64069;46.396;48.102;2023-07-09T04:31:12;31.31;55.98
75489;HTU21D;64069;46.396;48.102;2023-07-09T04:33:44;31.28;56.30
75489;HTU21D;64069;46.396;48.102;2023-07-09T04:36:17;31.16;56.72
75489;HTU21D;64069;46.396;48.102;2023-07-09T04:38:49;31.04;57.16
75489;HTU21D;64069;46.396;48.102;2023-07-09T04:41:15;30.91;57.66
75489;HTU21D;64069;46.396;48.102;2023-07-09T04:43:47;30.76;58.38
75489;HTU21D;64069;46.396;48.102;2023-07-09T04:46:13;30.63;59.03
75489;HTU21D;64069;46.396;48.102;2023-07-09T04:48:45;30.61;59.26
75489;HTU21D;64069;46.396;48.102;2023-07-09T04:51:17;30.68;59.28
75489;HTU21D;64069;46.396;48.102;2023-07-09T04:53:43;30.71;59.59
75489;HTU21D;64069;46.396;48.102;2023-07-09T04:56:16;30.69;59.96
75489;HTU21D;64069;46.396;48.102;2023-07-09T04:58:42;30.64;60.29
75489;HTU21D;64069;46.396;48.102;2023-07-09T05:01:14;30.63;60.38
75489;HTU21D;64069;46.396;48.102;2023-07-09T05:03:46;30.69;60.42
75489;HTU21D;64069;46.396;48.102;2023-07-09T05:06:13;30.79;60.07
75489;HTU21D;64069;46.396;48.102;2023-07-09T05:08:45;30.89;59.65
75489;HTU21D;64069;46.396;48.102;2023-07-09T05:11:18;30.94;59.51
75489;HTU21D;64069;46.396;48.102;2023-07-09T05:13:44;31.01;59.32
75489;HTU21D;64069;46.396;48.102;2023-07-09T05:16:16;31.09;58.98
75489;HTU21D;64069;46.396;48.102;2023-07-09T05:18:44;31.15;58.88
75489;HTU21D;64069;46.396;48.102;2023-07-09T05:21:16;31.22;58.72
75489;HTU21D;64069;46.396;48.102;2023-07-09T05:23:48;31.23;58.67
75489;HTU21D;64069;46.396;48.102;2023-07-09T05:26:14;31.25;58.81
75489;HTU21D;64069;46.396;48.102;2023-07-09T05:28:46;31.24;59.03
75489;HTU21D;64069;46.396;48.102;2023-07-09T05:31:18;31.24;59.16
75489;HTU21D;64069;46.396;48.102;2023-07-09T05:33:45;31.31;59.12
75489;HTU21D;64069;46.396;48.102;2023-07-09T05:36:17;31.39;59.09
75489;HTU21D;64069;46.396;48.102;2023-07-09T05:38:51;31.39;59.30
75489;HTU21D;64069;46.396;48.102;2023-07-09T05:41:17;31.30;59.57
75489;HTU21D;64069;46.396;48.102;2023-07-09T05:43:50;31.33;59.68
75489;HTU21D;64069;46.396;48.102;2023-07-09T05:46:23;31.36;59.76
75489;HTU21D;64069;46.396;48.102;2023-07-09T05:48:49;31.33;59.91
75489;HTU21D;64069;46.396;48.102;2023-07-09T05:51:22;31.28;59.94
75489;HTU21D;64069;46.396;48.102;2023-07-09T05:53:56;31.21;60.41
75489;HTU21D;64069;46.396;48.102;2023-07-09T05:56:29;31.15;60.80
75489;HTU21D;64069;46.396;48.102;2023-07-09T05:58:54;31.19;60.57
75489;HTU21D;64069;46.396;48.102;2023-07-09T06:01:28;31.26;60.55
75489;HTU21D;64069;46.396;48.102;2023-07-09T06:04:00;31.38;60.41
75489;HTU21D;64069;46.396;48.102;2023-07-09T06:06:27;31.43;60.09
75489;HTU21D;64069;46.396;48.102;2023-07-09T06:08:59;31.51;59.74
75489;HTU21D;64069;46.396;48.102;2023-07-09T06:11:31;31.74;58.78
75489;HTU21D;64069;46.396;48.102;2023-07-09T06:13:57;32.07;57.40
75489;HTU21D;64069;46.396;48.102;2023-07-09T06:16:30;32.43;56.06
75489;HTU21D;64069;46.396;48.102;2023-07-09T06:19:03;32.75;54.98
75489;HTU21D;64069;46.396;48.102;2023-07-09T06:21:29;32.93;54.30
75489;HTU21D;64069;46.396;48.102;2023-07-09T06:24:01;33.27;53.28
75489;HTU21D;64069;46.396;48.102;2023-07-09T06:26:33;33.45;52.46
75489;HTU21D;64069;46.396;48.102;2023-07-09T06:28:59;33.58;52.06
75489;HTU21D;64069;46.396;48.102;2023-07-09T06:31:31;33.62;51.69
75489;HTU21D;64069;46.396;48.102;2023-07-09T06:34:04;33.68;51.24
75489;HTU21D;64069;46.396;48.102;2023-07-09T06:36:31;33.71;50.96
75489;HTU21D;64069;46.396;48.102;2023-07-09T06:39:04;33.55;50.66
75489;HTU21D;64069;46.396;48.102;2023-07-09T06:41:31;33.50;50.53
75489;HTU21D;64069;46.396;48.102;2023-07-09T06:44:07;33.50;50.24
75489;HTU21D;64069;46.396;48.102;2023-07-09T06:46:39;33.67;49.59
75489;HTU21D;64069;46.396;48.102;2023-07-09T06:49:05;33.86;48.80
75489;HTU21D;64069;46.396;48.102;2023-07-09T06:51:38;34.26;47.96
75489;HTU21D;64069;46.396;48.102;2023-07-09T06:54:12;34.59;46.66
75489;HTU21D;64069;46.396;48.102;2023-07-09T06:56:38;34.62;46.41
75489;HTU21D;64069;46.396;48.102;2023-07-09T06:59:10;34.96;46.06
75489;HTU21D;64069;46.396;48.102;2023-07-09T07:01:42;35.48;44.99
75489;HTU21D;64069;46.396;48.102;2023-07-09T07:04:08;35.74;44.55
75489;HTU21D;64069;46.396;48.102;2023-07-09T07:06:41;36.06;43.97
75489;HTU21D;64069;46.396;48.102;2023-07-09T07:09:14;36.26;43.45
75489;HTU21D;64069;46.396;48.102;2023-07-09T07:11:53;36.21;43.56
75489;HTU21D;64069;46.396;48.102;2023-07-09T07:14:19;35.98;43.74
75489;HTU21D;64069;46.396;48.102;2023-07-09T07:16:51;35.88;44.24
75489;HTU21D;64069;46.396;48.102;2023-07-09T07:19:17;36.10;43.93
75489;HTU21D;64069;46.396;48.102;2023-07-09T07:21:49;36.41;43.40
75489;HTU21D;64069;46.396;48.102;2023-07-09T07:24:15;36.67;42.45
75489;HTU21D;64069;46.396;48.102;2023-07-09T07:26:54;37.21;41.45
75489;HTU21D;64069;46.396;48.102;2023-07-09T07:29:26;37.36;40.64
75489;HTU21D;64069;46.396;48.102;2023-07-09T07:31:54;37.28;40.49
75489;HTU21D;64069;46.396;48.102;2023-07-09T07:34:26;37.26;40.23
75489;HTU21D;64069;46.396;48.102;2023-07-09T07:36:52;37.19;39.86
75489;HTU21D;64069;46.396;48.102;2023-07-09T07:39:24;37.00;39.67
75489;HTU21D;64069;46.396;48.102;2023-07-09T07:41:50;36.70;40.30
75489;HTU21D;64069;46.396;48.102;2023-07-09T07:44:23;36.64;39.77
75489;HTU21D;64069;46.396;48.102;2023-07-09T07:46:55;36.41;39.91
75489;HTU21D;64069;46.396;48.102;2023-07-09T07:49:22;36.18;39.41
75489;HTU21D;64069;46.396;48.102;2023-07-09T07:51:54;35.86;39.89
75489;HTU21D;64069;46.396;48.102;2023-07-09T07:54:21;35.74;39.94
75489;HTU21D;64069;46.396;48.102;2023-07-09T07:56:54;35.58;39.07
75489;HTU21D;64069;46.396;48.102;2023-07-09T07:59:26;35.48;38.85
75489;HTU21D;64069;46.396;48.102;2023-07-09T08:01:52;35.56;38.67
75489;HTU21D;64069;46.396;48.102;2023-07-09T08:04:25;35.87;38.01
75489;HTU21D;64069;46.396;48.102;2023-07-09T08:06:51;36.11;37.62
75489;HTU21D;64069;46.396;48.102;2023-07-09T08:09:24;36.19;37.62
75489;HTU21D;64069;46.396;48.102;2023-07-09T08:11:57;36.14;37.62
75489;HTU21D;64069;46.396;48.102;2023-07-09T08:14:29;35.84;37.72
75489;HTU21D;64069;46.396;48.102;2023-07-09T08:17:01;35.72;37.79
75489;HTU21D;64069;46.396;48.102;2023-07-09T08:19:53;35.35;37.99
75489;HTU21D;64069;46.396;48.102;2023-07-09T08:22:27;35.09;38.26
75489;HTU21D;64069;46.396;48.102;2023-07-09T08:24:59;34.98;38.55
75489;HTU21D;64069;46.396;48.102;2023-07-09T08:27:25;35.00;38.80
75489;HTU21D;64069;46.396;48.102;2023-07-09T08:29:57;35.23;38.60
75489;HTU21D;64069;46.396;48.102;2023-07-09T08:32:30;35.30;38.08
75489;HTU21D;64069;46.396;48.102;2023-07-09T08:35:03;35.12;38.27
75489;HTU21D;64069;46.396;48.102;2023-07-09T08:37:29;35.07;38.25
75489;HTU21D;64069;46.396;48.102;2023-07-09T08:40:01;35.13;38.34
75489;HTU21D;64069;46.396;48.102;2023-07-09T08:42:44;35.07;38.39
75489;HTU21D;64069;46.396;48.102;2023-07-09T08:45:47;35.29;38.31
75489;HTU21D;64069;46.396;48.102;2023-07-09T08:48:27;35.62;37.70
75489;HTU21D;64069;46.396;48.102;2023-07-09T08:51:12;35.74;37.60
75489;HTU21D;64069;46.396;48.102;2023-07-09T08:53:50;35.95;37.17
75489;HTU21D;64069;46.396;48.102;2023-07-09T08:56:25;36.34;36.77
75489;HTU21D;64069;46.396;48.102;2023-07-09T08:58:55;36.57;36.43
75489;HTU21D;64069;46.396;48.102;2023-07-09T09:01:33;36.54;36.60
75489;HTU21D;64069;46.396;48.102;2023-07-09T09:04:25;36.48;36.88
75489;HTU21D;64069;46.396;48.102;2023-07-09T09:10:02;36.07;37.72
75489;HTU21D;64069;46.396;48.102;2023-07-09T09:15:32;35.68;38.51
75489;HTU21D;64069;46.396;48.102;2023-07-09T09:21:03;35.78;38.54
75489;HTU21D;64069;46.396;48.102;2023-07-09T09:23:50;35.88;38.50
75489;HTU21D;64069;46.396;48.102;2023-07-09T09:29:13;36.18;38.55
75489;HTU21D;64069;46.396;48.102;2023-07-09T09:31:50;36.06;38.75
75489;HTU21D;64069;46.396;48.102;2023-07-09T09:34:26;35.74;39.26
75489;HTU21D;64069;46.396;48.102;2023-07-09T09:37:01;35.47;39.77
75489;HTU21D;64069;46.396;48.102;2023-07-09T09:39:38;35.21;40.36
75489;HTU21D;64069;46.396;48.102;2023-07-09T09:42:11;35.07;40.73
75489;HTU21D;64069;46.396;48.102;2023-07-09T09:44:44;34.93;41.08
75489;HTU21D;64069;46.396;48.102;2023-07-09T09:47:18;34.70;41.36
75489;HTU21D;64069;46.396;48.102;2023-07-09T09:49:44;34.40;41.55
75489;HTU21D;64069;46.396;48.102;2023-07-09T09:52:18;34.09;42.23
75489;HTU21D;64069;46.396;48.102;2023-07-09T09:54:53;33.97;42.58
75489;HTU21D;64069;46.396;48.102;2023-07-09T09:57:22;33.81;42.95
75489;HTU21D;64069;46.396;48.102;2023-07-09T09:59:55;33.74;43.27
75489;HTU21D;64069;46.396;48.102;2023-07-09T10:02:39;33.92;43.19
75489;HTU21D;64069;46.396;48.102;2023-07-09T10:05:15;34.11;42.97
75489;HTU21D;64069;46.396;48.102;2023-07-09T10:08:06;34.11;43.08
75489;HTU21D;64069;46.396;48.102;2023-07-09T10:10:41;34.18;43.05
75489;HTU21D;64069;46.396;48.102;2023-07-09T10:13:29;34.22;42.71
75489;HTU21D;64069;46.396;48.102;2023-07-09T10:16:29;34.35;42.43
75489;HTU21D;64069;46.396;48.102;2023-07-09T10:21:49;34.62;40.83
75489;HTU21D;64069;46.396;48.102;2023-07-09T10:27:42;34.89;40.30
75489;HTU21D;64069;46.396;48.102;2023-07-09T10:30:41;35.15;39.90
75489;HTU21D;64069;46.396;48.102;2023-07-09T10:33:52;35.35;39.48
75489;HTU21D;64069;46.396;48.102;2023-07-09T10:39:37;35.42;39.59
75489;HTU21D;64069;46.396;48.102;2023-07-09T10:42:21;35.44;39.55
75489;HTU21D;64069;46.396;48.102;2023-07-09T10:44:59;35.27;39.56
75489;HTU21D;64069;46.396;48.102;2023-07-09T10:47:47;35.05;39.84
75489;HTU21D;64069;46.396;48.102;2023-07-09T10:50:41;35.07;39.83
75489;HTU21D;64069;46.396;48.102;2023-07-09T10:53:44;35.24;39.52
75489;HTU21D;64069;46.396;48.102;2023-07-09T10:56:21;35.45;39.23
75489;HTU21D;64069;46.396;48.102;2023-07-09T11:01:52;35.69;38.09
75489;HTU21D;64069;46.396;48.102;2023-07-09T11:04:39;35.73;37.82
75489;HTU21D;64069;46.396;48.102;2023-07-09T11:07:17;35.93;37.79
75489;HTU21D;64069;46.396;48.102;2023-07-09T11:09:51;36.41;37.27
75489;HTU21D;64069;46.396;48.102;2023-07-09T11:12:39;36.86;36.34
75489;HTU21D;64069;46.396;48.102;2023-07-09T11:15:18;37.04;35.91
75489;HTU21D;64069;46.396;48.102;2023-07-09T11:17:52;37.13;35.62
75489;HTU21D;64069;46.396;48.102;2023-07-09T11:20:31;37.28;35.12
75489;HTU21D;64069;46.396;48.102;2023-07-09T11:23:15;37.36;34.65
75489;HTU21D;64069;46.396;48.102;2023-07-09T11:26:10;37.03;34.14
75489;HTU21D;64069;46.396;48.102;2023-07-09T11:28:53;36.68;34.03
75489;HTU21D;64069;46.396;48.102;2023-07-09T11:31:38;36.46;33.67
75489;HTU21D;64069;46.396;48.102;2023-07-09T11:36:58;36.30;32.68
75489;HTU21D;64069;46.396;48.102;2023-07-09T11:42:32;36.07;32.53
75489;HTU21D;64069;46.396;48.102;2023-07-09T11:45:10;36.14;32.30
75489;HTU21D;64069;46.396;48.102;2023-07-09T11:47:47;36.13;32.32
75489;HTU21D;64069;46.396;48.102;2023-07-09T11:50:28;35.96;32.10
75489;HTU21D;64069;46.396;48.102;2023-07-09T11:55:59;35.66;32.54
75489;HTU21D;64069;46.396;48.102;2023-07-09T11:58:32;35.59;32.78
75489;HTU21D;64069;46.396;48.102;2023-07-09T12:00:58;35.62;32.84
75489;HTU21D;64069;46.396;48.102;2023-07-09T12:03:36;35.55;33.11
75489;HTU21D;64069;46.396;48.102;2023-07-09T12:06:23;35.52;33.43
75489;HTU21D;64069;46.396;48.102;2023-07-09T12:08:58;35.41;33.89
75489;HTU21D;64069;46.396;48.102;2023-07-09T12:14:03;35.49;34.31
75489;HTU21D;64069;46.396;48.102;2023-07-09T12:16:42;35.43;34.44
75489;HTU21D;64069;46.396;48.102;2023-07-09T12:19:22;35.47;34.71
75489;HTU21D;64069;46.396;48.102;2023-07-09T12:21:58;35.53;35.08
75489;HTU21D;64069;46.396;48.102;2023-07-09T12:24:37;35.62;35.26
75489;HTU21D;64069;46.396;48.102;2023-07-09T12:27:22;35.81;34.79
75489;HTU21D;64069;46.396;48.102;2023-07-09T12:30:03;35.88;34.80
75489;HTU21D;64069;46.396;48.102;2023-07-09T12:32:43;35.96;34.14
75489;HTU21D;64069;46.396;48.102;2023-07-09T12:35:16;36.11;34.03
75489;HTU21D;64069;46.396;48.102;2023-07-09T12:37:50;36.28;33.38
75489;HTU21D;64069;46.396;48.102;2023-07-09T12:40:28;36.34;33.34
75489;HTU21D;64069;46.396;48.102;2023-07-09T12:43:02;36.51;33.25
75489;HTU21D;64069;46.396;48.102;2023-07-09T12:45:35;36.57;33.27
75489;HTU21D;64069;46.396;48.102;2023-07-09T12:48:11;36.72;33.47
75489;HTU21D;64069;46.396;48.102;2023-07-09T12:50:49;36.74;33.15
75489;HTU21D;64069;46.396;48.102;2023-07-09T12:53:25;36.48;33.41
75489;HTU21D;64069;46.396;48.102;2023-07-09T12:55:55;36.31;33.57
75489;HTU21D;64069;46.396;48.102;2023-07-09T12:58:33;36.22;33.83
75489;HTU21D;64069;46.396;48.102;2023-07-09T13:01:15;36.17;34.29
75489;HTU21D;64069;46.396;48.102;2023-07-09T13:03:55;36.27;34.40
75489;HTU21D;64069;46.396;48.102;2023-07-09T13:06:30;36.33;34.47
75489;HTU21D;64069;46.396;48.102;2023-07-09T13:09:15;36.11;34.94
75489;HTU21D;64069;46.396;48.102;2023-07-09T13:11:49;35.67;35.55
75489;HTU21D;64069;46.396;48.102;2023-07-09T13:14:25;35.50;36.08
75489;HTU21D;64069;46.396;48.102;2023-07-09T13:17:08;35.56;36.29
75489;HTU21D;64069;46.396;48.102;2023-07-09T13:19:42;35.60;35.91
75489;HTU21D;64069;46.396;48.102;2023-07-09T13:22:15;35.64;35.88
75489;HTU21D;64069;46.396;48.102;2023-07-09T13:24:48;35.67;35.59
75489;HTU21D;64069;46.396;48.102;2023-07-09T13:27:27;35.77;35.43
75489;HTU21D;64069;46.396;48.102;2023-07-09T13:30:07;35.88;34.63
75489;HTU21D;64069;46.396;48.102;2023-07-09T13:32:33;35.83;34.16
75489;HTU21D;64069;46.396;48.102;2023-07-09T13:35:17;35.79;34.10
75489;HTU21D;64069;46.396;48.102;2023-07-09T13:37:50;35.75;34.11
75489;HTU21D;64069;46.396;48.102;2023-07-09T13:42:56;35.69;34.25
75489;HTU21D;64069;46.396;48.102;2023-07-09T13:45:28;35.51;34.35
75489;HTU21D;64069;46.396;48.102;2023-07-09T13:47:54;35.37;34.59
75489;HTU21D;64069;46.396;48.102;2023-07-09T13:50:26;35.25;34.79
75489;HTU21D;64069;46.396;48.102;2023-07-09T13:52:58;35.26;34.87
75489;HTU21D;64069;46.396;48.102;2023-07-09T13:55:31;35.23;34.78
75489;HTU21D;64069;46.396;48.102;2023-07-09T13:57:57;35.25;34.70
75489;HTU21D;64069;46.396;48.102;2023-07-09T14:00:29;35.35;34.50
75489;HTU21D;64069;46.396;48.102;2023-07-09T14:03:02;35.41;34.45
75489;HTU21D;64069;46.396;48.102;2023-07-09T14:05:28;35.45;34.29
75489;HTU21D;64069;46.396;48.102;2023-07-09T14:08:01;35.42;34.26
75489;HTU21D;64069;46.396;48.102;2023-07-09T14:10:26;35.40;34.01
75489;HTU21D;64069;46.396;48.102;2023-07-09T14:13:00;35.37;33.69
75489;HTU21D;64069;46.396;48.102;2023-07-09T14:15:35;35.39;33.55
75489;HTU21D;64069;46.396;48.102;2023-07-09T14:18:00;35.41;33.54
75489;HTU21D;64069;46.396;48.102;2023-07-09T14:20:33;35.39;33.57
75489;HTU21D;64069;46.396;48.102;2023-07-09T14:22:59;35.39;33.84
75489;HTU21D;64069;46.396;48.102;2023-07-09T14:25:32;35.39;34.23
75489;HTU21D;64069;46.396;48.102;2023-07-09T14:27:58;35.31;34.34
75489;HTU21D;64069;46.396;48.102;2023-07-09T14:30:30;35.12;34.63
75489;HTU21D;64069;46.396;48.102;2023-07-09T14:33:03;34.96;34.74
75489;HTU21D;64069;46.396;48.102;2023-07-09T14:35:30;34.83;35.08
75489;HTU21D;64069;46.396;48.102;2023-07-09T14:40:46;34.57;35.50
75489;HTU21D;64069;46.396;48.102;2023-07-09T14:43:32;34.54;35.73
75489;HTU21D;64069;46.396;48.102;2023-07-09T14:46:05;34.46;36.05
75489;HTU21D;64069;46.396;48.102;2023-07-09T14:48:30;34.37;36.35
75489;HTU21D;64069;46.396;48.102;2023-07-09T14:51:19;34.36;36.25
75489;HTU21D;64069;46.396;48.102;2023-07-09T14:53:52;34.35;36.09
75489;HTU21D;64069;46.396;48.102;2023-07-09T14:56:17;34.31;36.03
75489;HTU21D;64069;46.396;48.102;2023-07-09T14:58:49;34.20;35.96
75489;HTU21D;64069;46.396;48.102;2023-07-09T15:01:22;34.14;36.06
75489;HTU21D;64069;46.396;48.102;2023-07-09T15:03:50;34.01;36.27
75489;HTU21D;64069;46.396;48.102;2023-07-09T15:06:23;33.89;36.48
75489;HTU21D;64069;46.396;48.102;2023-07-09T15:08:56;33.75;36.85
75489;HTU21D;64069;46.396;48.102;2023-07-09T15:11:22;33.64;37.11
75489;HTU21D;64069;46.396;48.102;2023-07-09T15:13:54;33.50;37.36
75489;HTU21D;64069;46.396;48.102;2023-07-09T15:16:27;33.36;37.44
75489;HTU21D;64069;46.396;48.102;2023-07-09T15:19:00;33.22;37.68
75489;HTU21D;64069;46.396;48.102;2023-07-09T15:21:25;33.08;37.94
75489;HTU21D;64069;46.396;48.102;2023-07-09T15:23:57;32.96;38.24
75489;HTU21D;64069;46.396;48.102;2023-07-09T15:26:30;32.85;38.62
75489;HTU21D;64069;46.396;48.102;2023-07-09T15:28:57;32.75;39.03
75489;HTU21D;64069;46.396;48.102;2023-07-09T15:31:30;32.66;39.50
75489;HTU21D;64069;46.396;48.102;2023-07-09T15:33:55;32.57;40.10
75489;HTU21D;64069;46.396;48.102;2023-07-09T15:36:29;32.45;40.66
75489;HTU21D;64069;46.396;48.102;2023-07-09T15:38:55;32.38;41.11
75489;HTU21D;64069;46.396;48.102;2023-07-09T15:41:27;32.29;41.99
75489;HTU21D;64069;46.396;48.102;2023-07-09T15:44:14;32.16;43.25
75489;HTU21D;64069;46.396;48.102;2023-07-09T15:46:52;31.95;44.24
75489;HTU21D;64069;46.396;48.102;2023-07-09T15:49:25;31.76;45.29
75489;HTU21D;64069;46.396;48.102;2023-07-09T15:51:52;31.59;46.24
75489;HTU21D;64069;46.396;48.102;2023-07-09T15:54:24;31.45;47.04
75489;HTU21D;64069;46.396;48.102;2023-07-09T15:56:57;31.28;47.81
75489;HTU21D;64069;46.396;48.102;2023-07-09T15:59:31;31.14;48.47
75489;HTU21D;64069;46.396;48.102;2023-07-09T16:02:13;31.01;48.89
75489;HTU21D;64069;46.396;48.102;2023-07-09T16:04:47;30.86;49.27
75489;HTU21D;64069;46.396;48.102;2023-07-09T16:07:12;30.75;49.63
75489;HTU21D;64069;46.396;48.102;2023-07-09T16:09:45;30.65;49.83
75489;HTU21D;64069;46.396;48.102;2023-07-09T16:12:19;30.56;50.15
75489;HTU21D;64069;46.396;48.102;2023-07-09T16:14:44;30.47;50.43
75489;HTU21D;64069;46.396;48.102;2023-07-09T16:17:16;30.39;50.66
75489;HTU21D;64069;46.396;48.102;2023-07-09T16:19:48;30.28;51.04
75489;HTU21D;64069;46.396;48.102;2023-07-09T16:22:21;30.17;51.33